Little Mackinaw, Illinois
Current Conditions -  °F | °C
As of 1:15 PM on Tuesday 21 Oct 2014 (Local Time) from KAAA Reporting Station
Clear Clear  
Wind Chill: 60°   Ceiling: Unl
Heat Index: 60°   Visibility: 10mi
Dew Point: 40°   Wind: 5mph
Humidity: 48%   Direction: 350°N
Pressure: 30.14"   Gusts: 17mph
Location:  40.4411°N, 89.3259°W
Report Text: KAAA 211815Z AUTO 35004G15KT 10SM CLR 15/04 A3014 RMK AO2 T01540044
Loading
Personal Weather Stations






























Interactive Weather Map New forecast layout! Learn more

10-Day Weather Forecast

Advertisements
Track Severe Weather on mobile